sensor_id;sensor_type;location;lat;lon;timestamp;P1;durP1;ratioP1;P2;durP2;ratioP2
16063;SDS011;8136;53.172;8.256;2023-06-22T00:02:16;19.87;;;13.83;;
16063;SDS011;8136;53.172;8.256;2023-06-22T00:04:43;18.87;;;14.20;;
16063;SDS011;8136;53.172;8.256;2023-06-22T00:07:10;16.70;;;13.53;;
16063;SDS011;8136;53.172;8.256;2023-06-22T00:09:36;18.10;;;12.83;;
16063;SDS011;8136;53.172;8.256;2023-06-22T00:12:05;20.57;;;14.07;;
16063;SDS011;8136;53.172;8.256;2023-06-22T00:14:32;20.43;;;14.27;;
16063;SDS011;8136;53.172;8.256;2023-06-22T00:16:59;18.33;;;13.57;;
16063;SDS011;8136;53.172;8.256;2023-06-22T00:19:26;22.07;;;13.77;;
16063;SDS011;8136;53.172;8.256;2023-06-22T00:21:53;19.77;;;13.90;;
16063;SDS011;8136;53.172;8.256;2023-06-22T00:24:20;18.83;;;14.17;;
16063;SDS011;8136;53.172;8.256;2023-06-22T00:26:47;21.40;;;15.90;;
16063;SDS011;8136;53.172;8.256;2023-06-22T00:29:16;20.30;;;15.83;;
16063;SDS011;8136;53.172;8.256;2023-06-22T00:31:43;20.70;;;15.43;;
16063;SDS011;8136;53.172;8.256;2023-06-22T00:34:10;20.57;;;15.67;;
16063;SDS011;8136;53.172;8.256;2023-06-22T00:36:37;21.77;;;14.73;;
16063;SDS011;8136;53.172;8.256;2023-06-22T00:39:05;22.10;;;15.90;;
16063;SDS011;8136;53.172;8.256;2023-06-22T00:41:33;20.47;;;15.17;;
16063;SDS011;8136;53.172;8.256;2023-06-22T00:44:00;23.23;;;15.33;;
16063;SDS011;8136;53.172;8.256;2023-06-22T00:46:28;20.77;;;14.93;;
16063;SDS011;8136;53.172;8.256;2023-06-22T00:48:55;19.87;;;15.03;;
16063;SDS011;8136;53.172;8.256;2023-06-22T00:51:23;20.30;;;14.33;;
16063;SDS011;8136;53.172;8.256;2023-06-22T00:53:50;23.77;;;15.37;;
16063;SDS011;8136;53.172;8.256;2023-06-22T00:56:27;22.70;;;15.77;;
16063;SDS011;8136;53.172;8.256;2023-06-22T01:15:39;20.10;;;14.47;;
16063;SDS011;8136;53.172;8.256;2023-06-22T01:36:12;24.33;;;16.50;;
16063;SDS011;8136;53.172;8.256;2023-06-22T01:38:40;21.30;;;15.73;;
16063;SDS011;8136;53.172;8.256;2023-06-22T01:41:08;21.80;;;15.47;;
16063;SDS011;8136;53.172;8.256;2023-06-22T01:43:35;21.30;;;15.43;;
16063;SDS011;8136;53.172;8.256;2023-06-22T01:46:03;22.73;;;16.07;;
16063;SDS011;8136;53.172;8.256;2023-06-22T01:48:30;22.97;;;15.53;;
16063;SDS011;8136;53.172;8.256;2023-06-22T01:50:58;20.13;;;15.40;;
16063;SDS011;8136;53.172;8.256;2023-06-22T01:53:26;22.30;;;14.93;;
16063;SDS011;8136;53.172;8.256;2023-06-22T01:55:53;20.83;;;14.93;;
16063;SDS011;8136;53.172;8.256;2023-06-22T01:58:20;21.50;;;15.57;;
16063;SDS011;8136;53.172;8.256;2023-06-22T02:00:50;22.47;;;15.60;;
16063;SDS011;8136;53.172;8.256;2023-06-22T02:03:23;20.27;;;14.90;;
16063;SDS011;8136;53.172;8.256;2023-06-22T02:05:56;21.53;;;15.60;;
16063;SDS011;8136;53.172;8.256;2023-06-22T02:08:29;21.87;;;15.13;;
16063;SDS011;8136;53.172;8.256;2023-06-22T02:10:58;21.13;;;15.60;;
16063;SDS011;8136;53.172;8.256;2023-06-22T02:13:26;20.30;;;15.27;;
16063;SDS011;8136;53.172;8.256;2023-06-22T03:02:24;19.87;;;13.87;;
16063;SDS011;8136;53.172;8.256;2023-06-22T03:04:52;19.60;;;15.27;;
16063;SDS011;8136;53.172;8.256;2023-06-22T03:07:18;24.03;;;15.90;;
16063;SDS011;8136;53.172;8.256;2023-06-22T03:09:45;21.93;;;15.97;;
16063;SDS011;8136;53.172;8.256;2023-06-22T03:12:12;23.07;;;17.17;;
16063;SDS011;8136;53.172;8.256;2023-06-22T03:14:39;23.93;;;17.20;;
16063;SDS011;8136;53.172;8.256;2023-06-22T03:17:05;23.50;;;16.43;;
16063;SDS011;8136;53.172;8.256;2023-06-22T03:19:33;21.13;;;15.37;;
16063;SDS011;8136;53.172;8.256;2023-06-22T03:22:00;21.63;;;14.53;;
16063;SDS011;8136;53.172;8.256;2023-06-22T03:24:27;22.90;;;15.57;;
16063;SDS011;8136;53.172;8.256;2023-06-22T03:26:54;23.90;;;16.70;;
16063;SDS011;8136;53.172;8.256;2023-06-22T03:29:21;18.93;;;14.30;;
16063;SDS011;8136;53.172;8.256;2023-06-22T03:31:48;22.90;;;15.77;;
16063;SDS011;8136;53.172;8.256;2023-06-22T03:34:15;24.07;;;15.80;;
16063;SDS011;8136;53.172;8.256;2023-06-22T03:36:43;23.10;;;15.17;;
16063;SDS011;8136;53.172;8.256;2023-06-22T03:39:11;20.83;;;14.90;;
16063;SDS011;8136;53.172;8.256;2023-06-22T03:41:38;21.80;;;15.93;;
16063;SDS011;8136;53.172;8.256;2023-06-22T03:44:04;25.27;;;16.23;;
16063;SDS011;8136;53.172;8.256;2023-06-22T03:46:31;23.23;;;16.73;;
16063;SDS011;8136;53.172;8.256;2023-06-22T03:48:58;25.37;;;17.87;;
16063;SDS011;8136;53.172;8.256;2023-06-22T03:51:25;22.90;;;16.50;;
16063;SDS011;8136;53.172;8.256;2023-06-22T03:53:53;24.90;;;17.23;;
16063;SDS011;8136;53.172;8.256;2023-06-22T03:56:19;22.60;;;16.13;;
16063;SDS011;8136;53.172;8.256;2023-06-22T03:58:46;21.57;;;15.80;;
16063;SDS011;8136;53.172;8.256;2023-06-22T04:01:13;23.10;;;16.23;;
16063;SDS011;8136;53.172;8.256;2023-06-22T04:03:42;24.87;;;17.20;;
16063;SDS011;8136;53.172;8.256;2023-06-22T04:06:09;23.57;;;16.63;;
16063;SDS011;8136;53.172;8.256;2023-06-22T04:08:35;25.13;;;16.17;;
16063;SDS011;8136;53.172;8.256;2023-06-22T04:11:03;22.73;;;15.80;;
16063;SDS011;8136;53.172;8.256;2023-06-22T04:13:31;22.90;;;16.17;;
16063;SDS011;8136;53.172;8.256;2023-06-22T04:15:57;24.43;;;16.50;;
16063;SDS011;8136;53.172;8.256;2023-06-22T04:18:26;24.27;;;16.37;;
16063;SDS011;8136;53.172;8.256;2023-06-22T04:20:53;22.07;;;15.60;;
16063;SDS011;8136;53.172;8.256;2023-06-22T04:23:19;21.67;;;15.50;;
16063;SDS011;8136;53.172;8.256;2023-06-22T04:25:46;22.80;;;16.77;;
16063;SDS011;8136;53.172;8.256;2023-06-22T04:28:14;25.63;;;16.57;;
16063;SDS011;8136;53.172;8.256;2023-06-22T04:30:41;22.40;;;17.43;;
16063;SDS011;8136;53.172;8.256;2023-06-22T04:33:12;23.23;;;17.03;;
16063;SDS011;8136;53.172;8.256;2023-06-22T04:35:39;21.40;;;15.50;;
16063;SDS011;8136;53.172;8.256;2023-06-22T04:38:07;24.17;;;17.27;;
16063;SDS011;8136;53.172;8.256;2023-06-22T04:40:34;22.60;;;15.33;;
16063;SDS011;8136;53.172;8.256;2023-06-22T04:43:01;21.77;;;16.17;;
16063;SDS011;8136;53.172;8.256;2023-06-22T04:45:30;25.37;;;17.17;;
16063;SDS011;8136;53.172;8.256;2023-06-22T04:47:56;23.57;;;17.67;;
16063;SDS011;8136;53.172;8.256;2023-06-22T04:50:23;23.07;;;16.33;;
16063;SDS011;8136;53.172;8.256;2023-06-22T04:52:50;23.87;;;17.80;;
16063;SDS011;8136;53.172;8.256;2023-06-22T04:55:20;26.20;;;18.07;;
16063;SDS011;8136;53.172;8.256;2023-06-22T04:57:46;22.70;;;17.33;;
16063;SDS011;8136;53.172;8.256;2023-06-22T05:00:14;27.93;;;18.30;;
16063;SDS011;8136;53.172;8.256;2023-06-22T05:02:44;22.60;;;16.77;;
16063;SDS011;8136;53.172;8.256;2023-06-22T05:05:12;26.03;;;18.00;;
16063;SDS011;8136;53.172;8.256;2023-06-22T05:07:39;26.10;;;18.90;;
16063;SDS011;8136;53.172;8.256;2023-06-22T05:10:09;25.43;;;18.23;;
16063;SDS011;8136;53.172;8.256;2023-06-22T05:12:37;24.83;;;18.20;;
16063;SDS011;8136;53.172;8.256;2023-06-22T05:15:05;24.90;;;17.60;;
16063;SDS011;8136;53.172;8.256;2023-06-22T05:17:32;26.03;;;18.07;;
16063;SDS011;8136;53.172;8.256;2023-06-22T05:20:01;27.23;;;19.07;;
16063;SDS011;8136;53.172;8.256;2023-06-22T05:22:31;28.23;;;18.83;;
16063;SDS011;8136;53.172;8.256;2023-06-22T05:24:58;24.87;;;17.97;;
16063;SDS011;8136;53.172;8.256;2023-06-22T05:27:24;21.90;;;16.60;;
16063;SDS011;8136;53.172;8.256;2023-06-22T05:29:51;28.47;;;20.43;;
16063;SDS011;8136;53.172;8.256;2023-06-22T05:32:18;24.17;;;18.97;;
16063;SDS011;8136;53.172;8.256;2023-06-22T05:34:45;25.20;;;17.53;;
16063;SDS011;8136;53.172;8.256;2023-06-22T05:37:13;24.57;;;18.07;;
16063;SDS011;8136;53.172;8.256;2023-06-22T05:39:40;23.77;;;18.23;;
16063;SDS011;8136;53.172;8.256;2023-06-22T05:42:07;25.13;;;17.77;;
16063;SDS011;8136;53.172;8.256;2023-06-22T05:44:34;22.63;;;16.77;;
16063;SDS011;8136;53.172;8.256;2023-06-22T05:47:02;23.17;;;17.00;;
16063;SDS011;8136;53.172;8.256;2023-06-22T05:49:29;24.77;;;16.20;;
16063;SDS011;8136;53.172;8.256;2023-06-22T05:51:57;24.17;;;17.77;;
16063;SDS011;8136;53.172;8.256;2023-06-22T05:54:27;21.27;;;15.07;;
16063;SDS011;8136;53.172;8.256;2023-06-22T05:56:54;23.03;;;16.87;;
16063;SDS011;8136;53.172;8.256;2023-06-22T05:59:21;21.67;;;16.80;;
16063;SDS011;8136;53.172;8.256;2023-06-22T06:01:47;22.47;;;16.10;;
16063;SDS011;8136;53.172;8.256;2023-06-22T06:04:16;20.40;;;15.10;;
16063;SDS011;8136;53.172;8.256;2023-06-22T06:06:43;17.77;;;13.93;;
16063;SDS011;8136;53.172;8.256;2023-06-22T06:09:09;18.97;;;15.40;;
16063;SDS011;8136;53.172;8.256;2023-06-22T06:11:39;18.10;;;13.77;;
16063;SDS011;8136;53.172;8.256;2023-06-22T06:14:06;21.37;;;16.17;;
16063;SDS011;8136;53.172;8.256;2023-06-22T06:16:32;17.73;;;13.80;;
16063;SDS011;8136;53.172;8.256;2023-06-22T06:18:59;18.40;;;13.60;;
16063;SDS011;8136;53.172;8.256;2023-06-22T06:21:26;18.27;;;13.50;;
16063;SDS011;8136;53.172;8.256;2023-06-22T06:23:53;15.93;;;12.27;;
16063;SDS011;8136;53.172;8.256;2023-06-22T06:26:20;16.97;;;11.80;;
16063;SDS011;8136;53.172;8.256;2023-06-22T06:28:56;16.47;;;12.50;;
16063;SDS011;8136;53.172;8.256;2023-06-22T06:31:23;14.83;;;11.93;;
16063;SDS011;8136;53.172;8.256;2023-06-22T06:33:52;12.33;;;9.97;;
16063;SDS011;8136;53.172;8.256;2023-06-22T06:36:19;13.50;;;9.70;;
16063;SDS011;8136;53.172;8.256;2023-06-22T06:38:46;9.77;;;8.47;;
16063;SDS011;8136;53.172;8.256;2023-06-22T06:41:13;12.30;;;9.83;;
16063;SDS011;8136;53.172;8.256;2023-06-22T06:43:41;17.57;;;9.70;;
16063;SDS011;8136;53.172;8.256;2023-06-22T06:46:09;13.33;;;9.70;;
16063;SDS011;8136;53.172;8.256;2023-06-22T06:48:36;11.77;;;8.40;;
16063;SDS011;8136;53.172;8.256;2023-06-22T06:51:06;11.40;;;7.83;;
16063;SDS011;8136;53.172;8.256;2023-06-22T06:53:34;13.53;;;8.80;;
16063;SDS011;8136;53.172;8.256;2023-06-22T06:56:02;11.30;;;9.10;;
16063;SDS011;8136;53.172;8.256;2023-06-22T06:58:30;13.30;;;9.23;;
16063;SDS011;8136;53.172;8.256;2023-06-22T07:00:57;11.63;;;8.63;;
16063;SDS011;8136;53.172;8.256;2023-06-22T07:03:25;12.10;;;8.97;;
16063;SDS011;8136;53.172;8.256;2023-06-22T07:05:52;12.80;;;8.93;;
16063;SDS011;8136;53.172;8.256;2023-06-22T07:08:19;10.07;;;7.83;;
16063;SDS011;8136;53.172;8.256;2023-06-22T07:10:46;9.80;;;7.43;;
16063;SDS011;8136;53.172;8.256;2023-06-22T07:13:12;9.07;;;6.60;;
16063;SDS011;8136;53.172;8.256;2023-06-22T07:15:39;9.53;;;7.03;;
16063;SDS011;8136;53.172;8.256;2023-06-22T07:18:07;10.53;;;8.50;;
16063;SDS011;8136;53.172;8.256;2023-06-22T07:20:35;9.50;;;6.90;;
16063;SDS011;8136;53.172;8.256;2023-06-22T07:23:02;10.20;;;7.87;;
16063;SDS011;8136;53.172;8.256;2023-06-22T07:25:29;10.73;;;7.87;;
16063;SDS011;8136;53.172;8.256;2023-06-22T07:27:57;7.87;;;6.57;;
16063;SDS011;8136;53.172;8.256;2023-06-22T07:30:24;9.07;;;6.53;;
16063;SDS011;8136;53.172;8.256;2023-06-22T07:32:51;9.93;;;6.00;;
16063;SDS011;8136;53.172;8.256;2023-06-22T07:35:18;8.07;;;5.27;;
16063;SDS011;8136;53.172;8.256;2023-06-22T07:37:47;7.27;;;5.47;;
16063;SDS011;8136;53.172;8.256;2023-06-22T07:40:13;6.07;;;5.37;;
16063;SDS011;8136;53.172;8.256;2023-06-22T07:42:40;8.17;;;5.33;;
16063;SDS011;8136;53.172;8.256;2023-06-22T07:45:07;6.00;;;4.80;;
16063;SDS011;8136;53.172;8.256;2023-06-22T07:47:34;7.40;;;5.20;;
16063;SDS011;8136;53.172;8.256;2023-06-22T07:50:02;6.13;;;4.80;;
16063;SDS011;8136;53.172;8.256;2023-06-22T07:52:29;6.40;;;4.73;;
16063;SDS011;8136;53.172;8.256;2023-06-22T07:54:57;4.37;;;3.63;;
16063;SDS011;8136;53.172;8.256;2023-06-22T07:57:24;7.40;;;4.43;;
16063;SDS011;8136;53.172;8.256;2023-06-22T07:59:57;5.20;;;3.93;;
16063;SDS011;8136;53.172;8.256;2023-06-22T08:02:24;5.33;;;4.37;;
16063;SDS011;8136;53.172;8.256;2023-06-22T08:04:50;7.03;;;5.10;;
16063;SDS011;8136;53.172;8.256;2023-06-22T08:07:17;6.47;;;4.43;;
16063;SDS011;8136;53.172;8.256;2023-06-22T08:09:46;4.97;;;3.80;;
16063;SDS011;8136;53.172;8.256;2023-06-22T08:12:14;6.13;;;4.00;;
16063;SDS011;8136;53.172;8.256;2023-06-22T08:14:42;5.50;;;4.30;;
16063;SDS011;8136;53.172;8.256;2023-06-22T08:17:11;6.50;;;4.60;;
16063;SDS011;8136;53.172;8.256;2023-06-22T08:19:39;5.97;;;4.40;;
16063;SDS011;8136;53.172;8.256;2023-06-22T08:22:06;6.63;;;4.40;;
16063;SDS011;8136;53.172;8.256;2023-06-22T08:24:32;6.57;;;4.13;;
16063;SDS011;8136;53.172;8.256;2023-06-22T08:26:59;6.37;;;4.67;;
16063;SDS011;8136;53.172;8.256;2023-06-22T08:29:27;6.13;;;4.77;;
16063;SDS011;8136;53.172;8.256;2023-06-22T08:31:54;6.10;;;4.27;;
16063;SDS011;8136;53.172;8.256;2023-06-22T08:34:21;7.00;;;5.23;;
16063;SDS011;8136;53.172;8.256;2023-06-22T08:36:49;9.03;;;4.87;;
16063;SDS011;8136;53.172;8.256;2023-06-22T08:39:17;7.70;;;4.97;;
16063;SDS011;8136;53.172;8.256;2023-06-22T08:41:45;7.10;;;5.30;;
16063;SDS011;8136;53.172;8.256;2023-06-22T08:44:12;9.00;;;5.40;;
16063;SDS011;8136;53.172;8.256;2023-06-22T08:46:40;7.23;;;5.27;;
16063;SDS011;8136;53.172;8.256;2023-06-22T08:49:08;7.43;;;4.87;;
16063;SDS011;8136;53.172;8.256;2023-06-22T08:51:35;5.43;;;4.30;;
16063;SDS011;8136;53.172;8.256;2023-06-22T08:54:03;6.13;;;4.33;;
16063;SDS011;8136;53.172;8.256;2023-06-22T08:56:30;5.17;;;3.83;;
16063;SDS011;8136;53.172;8.256;2023-06-22T08:58:57;4.67;;;3.33;;
16063;SDS011;8136;53.172;8.256;2023-06-22T09:01:25;5.43;;;4.07;;
16063;SDS011;8136;53.172;8.256;2023-06-22T09:03:53;4.40;;;3.73;;
16063;SDS011;8136;53.172;8.256;2023-06-22T09:06:23;4.80;;;3.83;;
16063;SDS011;8136;53.172;8.256;2023-06-22T09:08:50;5.00;;;3.73;;
16063;SDS011;8136;53.172;8.256;2023-06-22T09:11:17;6.23;;;4.90;;
16063;SDS011;8136;53.172;8.256;2023-06-22T09:13:43;7.83;;;4.33;;
16063;SDS011;8136;53.172;8.256;2023-06-22T09:16:11;6.80;;;5.10;;
16063;SDS011;8136;53.172;8.256;2023-06-22T09:18:38;5.47;;;4.43;;
16063;SDS011;8136;53.172;8.256;2023-06-22T09:21:21;6.33;;;4.50;;
16063;SDS011;8136;53.172;8.256;2023-06-22T09:23:49;5.30;;;3.90;;
16063;SDS011;8136;53.172;8.256;2023-06-22T09:26:16;6.30;;;3.63;;
16063;SDS011;8136;53.172;8.256;2023-06-22T09:28:43;6.20;;;4.60;;
16063;SDS011;8136;53.172;8.256;2023-06-22T09:31:21;5.33;;;4.23;;
16063;SDS011;8136;53.172;8.256;2023-06-22T09:38:07;5.63;;;3.40;;
16063;SDS011;8136;53.172;8.256;2023-06-22T09:53:45;5.27;;;3.90;;
16063;SDS011;8136;53.172;8.256;2023-06-22T09:56:17;4.27;;;3.43;;
16063;SDS011;8136;53.172;8.256;2023-06-22T09:58:44;4.57;;;3.60;;
16063;SDS011;8136;53.172;8.256;2023-06-22T10:01:12;6.50;;;3.17;;
16063;SDS011;8136;53.172;8.256;2023-06-22T10:03:40;4.67;;;3.40;;
16063;SDS011;8136;53.172;8.256;2023-06-22T10:06:10;7.43;;;3.53;;
16063;SDS011;8136;53.172;8.256;2023-06-22T10:08:37;5.20;;;3.10;;
16063;SDS011;8136;53.172;8.256;2023-06-22T10:11:05;4.67;;;3.47;;
16063;SDS011;8136;53.172;8.256;2023-06-22T10:13:32;6.60;;;3.93;;
16063;SDS011;8136;53.172;8.256;2023-06-22T10:16:00;3.63;;;3.20;;
16063;SDS011;8136;53.172;8.256;2023-06-22T10:18:35;5.40;;;3.13;;
16063;SDS011;8136;53.172;8.256;2023-06-22T10:24:22;5.03;;;3.53;;
16063;SDS011;8136;53.172;8.256;2023-06-22T10:27:30;4.30;;;3.90;;
16063;SDS011;8136;53.172;8.256;2023-06-22T10:29:57;6.60;;;4.40;;
16063;SDS011;8136;53.172;8.256;2023-06-22T10:32:23;5.30;;;4.40;;
16063;SDS011;8136;53.172;8.256;2023-06-22T10:34:50;7.37;;;4.20;;
16063;SDS011;8136;53.172;8.256;2023-06-22T10:37:17;4.20;;;3.60;;
16063;SDS011;8136;53.172;8.256;2023-06-22T10:40:00;8.90;;;4.10;;
16063;SDS011;8136;53.172;8.256;2023-06-22T10:46:03;4.87;;;3.80;;
16063;SDS011;8136;53.172;8.256;2023-06-22T10:48:30;4.27;;;3.13;;
16063;SDS011;8136;53.172;8.256;2023-06-22T10:50:57;5.13;;;3.63;;
16063;SDS011;8136;53.172;8.256;2023-06-22T10:53:29;3.90;;;3.50;;
16063;SDS011;8136;53.172;8.256;2023-06-22T17:49:28;2.03;;;1.80;;
16063;SDS011;8136;53.172;8.256;2023-06-22T17:51:56;2.07;;;1.70;;
16063;SDS011;8136;53.172;8.256;2023-06-22T17:54:28;3.87;;;1.70;;
16063;SDS011;8136;53.172;8.256;2023-06-22T17:56:56;2.73;;;1.57;;
16063;SDS011;8136;53.172;8.256;2023-06-22T17:59:23;3.17;;;1.50;;
16063;SDS011;8136;53.172;8.256;2023-06-22T18:01:50;2.73;;;1.60;;
16063;SDS011;8136;53.172;8.256;2023-06-22T18:22:24;2.43;;;2.00;;
16063;SDS011;8136;53.172;8.256;2023-06-22T18:24:52;3.50;;;1.90;;
16063;SDS011;8136;53.172;8.256;2023-06-22T18:27:19;3.27;;;1.77;;
16063;SDS011;8136;53.172;8.256;2023-06-22T18:29:49;2.97;;;2.10;;
16063;SDS011;8136;53.172;8.256;2023-06-22T18:32:16;4.00;;;2.00;;
16063;SDS011;8136;53.172;8.256;2023-06-22T18:34:43;1.97;;;1.50;;
16063;SDS011;8136;53.172;8.256;2023-06-22T18:37:13;6.80;;;2.67;;
16063;SDS011;8136;53.172;8.256;2023-06-22T18:39:42;3.43;;;1.83;;
16063;SDS011;8136;53.172;8.256;2023-06-22T18:42:10;3.00;;;1.70;;
16063;SDS011;8136;53.172;8.256;2023-06-22T18:44:40;4.67;;;2.00;;
16063;SDS011;8136;53.172;8.256;2023-06-22T18:47:08;3.10;;;1.50;;
16063;SDS011;8136;53.172;8.256;2023-06-22T18:49:45;2.67;;;2.07;;
16063;SDS011;8136;53.172;8.256;2023-06-22T18:52:18;3.90;;;1.93;;
16063;SDS011;8136;53.172;8.256;2023-06-22T18:54:50;2.70;;;1.70;;
16063;SDS011;8136;53.172;8.256;2023-06-22T18:57:21;2.90;;;1.83;;
16063;SDS011;8136;53.172;8.256;2023-06-22T18:59:50;4.20;;;2.23;;
16063;SDS011;8136;53.172;8.256;2023-06-22T19:02:34;7.83;;;2.57;;
16063;SDS011;8136;53.172;8.256;2023-06-22T19:05:14;5.17;;;1.90;;
16063;SDS011;8136;53.172;8.256;2023-06-22T19:07:58;6.77;;;2.23;;
16063;SDS011;8136;53.172;8.256;2023-06-22T19:10:27;4.63;;;2.33;;
16063;SDS011;8136;53.172;8.256;2023-06-22T19:12:57;6.17;;;2.30;;
16063;SDS011;8136;53.172;8.256;2023-06-22T19:15:43;6.43;;;2.33;;
16063;SDS011;8136;53.172;8.256;2023-06-22T19:18:13;4.37;;;2.53;;
16063;SDS011;8136;53.172;8.256;2023-06-22T19:20:40;2.13;;;1.80;;
16063;SDS011;8136;53.172;8.256;2023-06-22T19:26:01;5.27;;;2.47;;
16063;SDS011;8136;53.172;8.256;2023-06-22T19:28:52;3.70;;;2.40;;
16063;SDS011;8136;53.172;8.256;2023-06-22T19:31:29;4.23;;;2.43;;
16063;SDS011;8136;53.172;8.256;2023-06-22T19:33:59;2.90;;;2.43;;
16063;SDS011;8136;53.172;8.256;2023-06-22T19:36:39;3.63;;;2.77;;
16063;SDS011;8136;53.172;8.256;2023-06-22T19:42:02;4.73;;;2.67;;
16063;SDS011;8136;53.172;8.256;2023-06-22T19:44:29;5.93;;;2.70;;
16063;SDS011;8136;53.172;8.256;2023-06-22T19:46:59;8.90;;;3.30;;
16063;SDS011;8136;53.172;8.256;2023-06-22T19:49:26;4.57;;;2.93;;
16063;SDS011;8136;53.172;8.256;2023-06-22T19:51:53;4.00;;;3.10;;
16063;SDS011;8136;53.172;8.256;2023-06-22T19:54:20;5.13;;;2.57;;
16063;SDS011;8136;53.172;8.256;2023-06-22T19:56:49;7.50;;;3.17;;
16063;SDS011;8136;53.172;8.256;2023-06-22T19:59:20;7.43;;;2.47;;
16063;SDS011;8136;53.172;8.256;2023-06-22T20:01:50;5.23;;;2.97;;
16063;SDS011;8136;53.172;8.256;2023-06-22T20:04:22;5.67;;;3.00;;
16063;SDS011;8136;53.172;8.256;2023-06-22T20:07:02;5.03;;;2.63;;
16063;SDS011;8136;53.172;8.256;2023-06-22T20:09:29;4.80;;;2.50;;
16063;SDS011;8136;53.172;8.256;2023-06-22T20:11:57;3.53;;;2.53;;
16063;SDS011;8136;53.172;8.256;2023-06-22T20:14:29;5.40;;;3.13;;
16063;SDS011;8136;53.172;8.256;2023-06-22T20:16:56;6.90;;;3.57;;
16063;SDS011;8136;53.172;8.256;2023-06-22T20:19:33;4.97;;;2.53;;
16063;SDS011;8136;53.172;8.256;2023-06-22T20:22:03;4.87;;;2.97;;
16063;SDS011;8136;53.172;8.256;2023-06-22T20:24:30;5.63;;;3.53;;
16063;SDS011;8136;53.172;8.256;2023-06-22T20:27:00;4.57;;;2.93;;
16063;SDS011;8136;53.172;8.256;2023-06-22T20:29:28;4.90;;;3.70;;
16063;SDS011;8136;53.172;8.256;2023-06-22T20:32:07;7.10;;;3.83;;
16063;SDS011;8136;53.172;8.256;2023-06-22T20:34:37;4.23;;;3.27;;
16063;SDS011;8136;53.172;8.256;2023-06-22T20:37:08;5.97;;;4.10;;
16063;SDS011;8136;53.172;8.256;2023-06-22T20:39:48;5.50;;;4.10;;
16063;SDS011;8136;53.172;8.256;2023-06-22T20:42:26;5.00;;;4.20;;
16063;SDS011;8136;53.172;8.256;2023-06-22T20:45:11;5.13;;;4.17;;
16063;SDS011;8136;53.172;8.256;2023-06-22T20:47:45;7.47;;;3.57;;
16063;SDS011;8136;53.172;8.256;2023-06-22T20:50:41;4.53;;;4.10;;
16063;SDS011;8136;53.172;8.256;2023-06-22T20:53:18;5.20;;;4.53;;
16063;SDS011;8136;53.172;8.256;2023-06-22T20:56:06;5.07;;;4.23;;
16063;SDS011;8136;53.172;8.256;2023-06-22T21:14:58;5.17;;;3.90;;
16063;SDS011;8136;53.172;8.256;2023-06-22T21:18:14;8.70;;;4.20;;
16063;SDS011;8136;53.172;8.256;2023-06-22T21:21:19;4.00;;;3.60;;
16063;SDS011;8136;53.172;8.256;2023-06-22T21:37:56;7.17;;;4.87;;
16063;SDS011;8136;53.172;8.256;2023-06-22T21:41:10;5.50;;;4.67;;
16063;SDS011;8136;53.172;8.256;2023-06-22T22:01:20;5.10;;;4.50;;
16063;SDS011;8136;53.172;8.256;2023-06-22T22:15:59;5.67;;;4.20;;
16063;SDS011;8136;53.172;8.256;2023-06-22T23:52:52;5.50;;;4.40;;
